sensor_id;sensor_type;location;lat;lon;timestamp;temperature;humidity
28837;DHT22;50669;50.982;11.022;2024-03-02T00:00:08;18.40;71.80
28837;DHT22;50669;50.982;11.022;2024-03-02T00:02:46;18.40;71.80
28837;DHT22;50669;50.982;11.022;2024-03-02T00:05:16;18.40;71.80
28837;DHT22;50669;50.982;11.022;2024-03-02T00:07:44;18.40;71.80
28837;DHT22;50669;50.982;11.022;2024-03-02T00:10:18;18.40;71.80
28837;DHT22;50669;50.982;11.022;2024-03-02T00:12:48;18.40;71.80
28837;DHT22;50669;50.982;11.022;2024-03-02T00:17:55;18.40;71.80
28837;DHT22;50669;50.982;11.022;2024-03-02T00:20:24;18.40;71.80
28837;DHT22;50669;50.982;11.022;2024-03-02T00:23:03;18.40;71.90
28837;DHT22;50669;50.982;11.022;2024-03-02T00:25:41;18.40;71.80
28837;DHT22;50669;50.982;11.022;2024-03-02T00:28:20;18.40;71.80
28837;DHT22;50669;50.982;11.022;2024-03-02T00:33:15;18.30;71.80
28837;DHT22;50669;50.982;11.022;2024-03-02T00:35:44;18.40;71.80
28837;DHT22;50669;50.982;11.022;2024-03-02T00:38:10;18.30;71.80
28837;DHT22;50669;50.982;11.022;2024-03-02T00:40:38;18.30;71.80
28837;DHT22;50669;50.982;11.022;2024-03-02T00:43:04;18.30;71.70
28837;DHT22;50669;50.982;11.022;2024-03-02T00:45:32;18.30;71.80
28837;DHT22;50669;50.982;11.022;2024-03-02T00:47:57;18.30;71.70
28837;DHT22;50669;50.982;11.022;2024-03-02T00:50:25;18.30;71.70
28837;DHT22;50669;50.982;11.022;2024-03-02T00:52:51;18.30;71.80
28837;DHT22;50669;50.982;11.022;2024-03-02T00:55:21;18.30;71.80
28837;DHT22;50669;50.982;11.022;2024-03-02T00:57:46;18.30;71.80
28837;DHT22;50669;50.982;11.022;2024-03-02T01:00:12;18.30;71.80
28837;DHT22;50669;50.982;11.022;2024-03-02T01:02:40;18.30;71.80
28837;DHT22;50669;50.982;11.022;2024-03-02T01:05:08;18.30;71.80
28837;DHT22;50669;50.982;11.022;2024-03-02T01:07:33;18.30;71.70
28837;DHT22;50669;50.982;11.022;2024-03-02T01:09:59;18.30;71.80
28837;DHT22;50669;50.982;11.022;2024-03-02T01:12:27;18.30;71.80
28837;DHT22;50669;50.982;11.022;2024-03-02T01:14:57;18.30;71.80
28837;DHT22;50669;50.982;11.022;2024-03-02T01:17:27;18.30;71.80
28837;DHT22;50669;50.982;11.022;2024-03-02T01:19:55;18.30;71.70
28837;DHT22;50669;50.982;11.022;2024-03-02T01:22:23;18.30;71.80
28837;DHT22;50669;50.982;11.022;2024-03-02T01:24:55;18.30;71.80
28837;DHT22;50669;50.982;11.022;2024-03-02T01:27:25;18.30;71.80
28837;DHT22;50669;50.982;11.022;2024-03-02T01:29:52;18.30;71.80
28837;DHT22;50669;50.982;11.022;2024-03-02T01:32:22;18.30;71.80
28837;DHT22;50669;50.982;11.022;2024-03-02T01:34:47;18.30;71.70
28837;DHT22;50669;50.982;11.022;2024-03-02T01:37:15;18.20;71.70
28837;DHT22;50669;50.982;11.022;2024-03-02T01:39:41;18.30;71.80
28837;DHT22;50669;50.982;11.022;2024-03-02T01:42:07;18.30;71.80
28837;DHT22;50669;50.982;11.022;2024-03-02T01:44:32;18.30;71.80
28837;DHT22;50669;50.982;11.022;2024-03-02T01:46:58;18.20;71.70
28837;DHT22;50669;50.982;11.022;2024-03-02T01:49:23;18.20;71.60
28837;DHT22;50669;50.982;11.022;2024-03-02T01:51:49;18.20;71.70
28837;DHT22;50669;50.982;11.022;2024-03-02T01:54:15;18.20;71.70
28837;DHT22;50669;50.982;11.022;2024-03-02T01:56:43;18.20;71.70
28837;DHT22;50669;50.982;11.022;2024-03-02T01:59:11;18.20;71.60
28837;DHT22;50669;50.982;11.022;2024-03-02T02:01:41;18.20;71.60
28837;DHT22;50669;50.982;11.022;2024-03-02T02:04:06;18.20;71.70
28837;DHT22;50669;50.982;11.022;2024-03-02T02:06:32;18.20;71.60
28837;DHT22;50669;50.982;11.022;2024-03-02T02:08:58;18.20;71.70
28837;DHT22;50669;50.982;11.022;2024-03-02T02:11:26;18.20;71.70
28837;DHT22;50669;50.982;11.022;2024-03-02T02:13:52;18.20;71.70
28837;DHT22;50669;50.982;11.022;2024-03-02T02:16:20;18.20;71.70
28837;DHT22;50669;50.982;11.022;2024-03-02T02:18:46;18.20;71.70
28837;DHT22;50669;50.982;11.022;2024-03-02T02:21:14;18.20;71.70
28837;DHT22;50669;50.982;11.022;2024-03-02T02:23:40;18.20;71.70
28837;DHT22;50669;50.982;11.022;2024-03-02T02:26:11;18.20;71.70
28837;DHT22;50669;50.982;11.022;2024-03-02T02:28:37;18.20;71.60
28837;DHT22;50669;50.982;11.022;2024-03-02T02:31:03;18.20;71.70
28837;DHT22;50669;50.982;11.022;2024-03-02T02:33:31;18.20;71.70
28837;DHT22;50669;50.982;11.022;2024-03-02T02:35:59;18.20;71.70
28837;DHT22;50669;50.982;11.022;2024-03-02T02:38:25;18.20;71.60
28837;DHT22;50669;50.982;11.022;2024-03-02T02:40:53;18.20;71.70
28837;DHT22;50669;50.982;11.022;2024-03-02T02:43:21;18.20;71.70
28837;DHT22;50669;50.982;11.022;2024-03-02T02:45:49;18.20;71.60
28837;DHT22;50669;50.982;11.022;2024-03-02T02:48:15;18.20;71.70
28837;DHT22;50669;50.982;11.022;2024-03-02T02:50:41;18.20;71.70
28837;DHT22;50669;50.982;11.022;2024-03-02T02:53:07;18.20;71.60
28837;DHT22;50669;50.982;11.022;2024-03-02T02:55:35;18.20;71.70
28837;DHT22;50669;50.982;11.022;2024-03-02T02:58:06;18.20;71.70
28837;DHT22;50669;50.982;11.022;2024-03-02T03:00:32;18.20;71.70
28837;DHT22;50669;50.982;11.022;2024-03-02T03:02:58;18.20;71.70
28837;DHT22;50669;50.982;11.022;2024-03-02T03:05:23;18.20;71.70
28837;DHT22;50669;50.982;11.022;2024-03-02T03:07:49;18.20;71.60
28837;DHT22;50669;50.982;11.022;2024-03-02T03:10:16;18.10;71.70
28837;DHT22;50669;50.982;11.022;2024-03-02T03:12:42;18.20;71.70
28837;DHT22;50669;50.982;11.022;2024-03-02T03:15:11;18.10;71.50
28837;DHT22;50669;50.982;11.022;2024-03-02T03:17:40;18.20;71.70
28837;DHT22;50669;50.982;11.022;2024-03-02T03:20:06;18.10;71.60
28837;DHT22;50669;50.982;11.022;2024-03-02T03:22:37;18.10;71.60
28837;DHT22;50669;50.982;11.022;2024-03-02T03:25:08;18.10;71.70
28837;DHT22;50669;50.982;11.022;2024-03-02T03:27:33;18.10;71.50
28837;DHT22;50669;50.982;11.022;2024-03-02T03:30:02;18.10;71.60
28837;DHT22;50669;50.982;11.022;2024-03-02T03:32:31;18.10;71.60
28837;DHT22;50669;50.982;11.022;2024-03-02T03:34:57;18.10;71.60
28837;DHT22;50669;50.982;11.022;2024-03-02T03:37:22;18.10;71.50
28837;DHT22;50669;50.982;11.022;2024-03-02T03:39:49;18.10;71.50
28837;DHT22;50669;50.982;11.022;2024-03-02T03:42:17;18.10;71.50
28837;DHT22;50669;50.982;11.022;2024-03-02T03:44:43;18.10;71.60
28837;DHT22;50669;50.982;11.022;2024-03-02T03:47:08;18.10;71.60
28837;DHT22;50669;50.982;11.022;2024-03-02T03:49:34;18.10;71.60
28837;DHT22;50669;50.982;11.022;2024-03-02T03:51:59;18.10;71.60
28837;DHT22;50669;50.982;11.022;2024-03-02T03:54:25;18.10;71.60
28837;DHT22;50669;50.982;11.022;2024-03-02T03:56:51;18.10;71.60
28837;DHT22;50669;50.982;11.022;2024-03-02T03:59:17;18.10;71.50
28837;DHT22;50669;50.982;11.022;2024-03-02T04:01:42;18.10;71.50
28837;DHT22;50669;50.982;11.022;2024-03-02T04:04:08;18.10;71.60
28837;DHT22;50669;50.982;11.022;2024-03-02T04:06:36;18.10;71.60
28837;DHT22;50669;50.982;11.022;2024-03-02T04:09:01;18.10;71.60
28837;DHT22;50669;50.982;11.022;2024-03-02T04:11:32;18.10;71.50
28837;DHT22;50669;50.982;11.022;2024-03-02T04:14:00;18.10;71.60
28837;DHT22;50669;50.982;11.022;2024-03-02T04:16:26;18.10;71.50
28837;DHT22;50669;50.982;11.022;2024-03-02T04:18:52;18.10;71.60
28837;DHT22;50669;50.982;11.022;2024-03-02T04:21:17;18.10;71.60
28837;DHT22;50669;50.982;11.022;2024-03-02T04:23:45;18.10;72.30
28837;DHT22;50669;50.982;11.022;2024-03-02T04:26:11;18.10;71.50
28837;DHT22;50669;50.982;11.022;2024-03-02T04:28:39;18.10;71.60
28837;DHT22;50669;50.982;11.022;2024-03-02T04:31:07;18.10;71.50
28837;DHT22;50669;50.982;11.022;2024-03-02T04:33:35;18.10;71.50
28837;DHT22;50669;50.982;11.022;2024-03-02T04:36:04;18.00;71.50
28837;DHT22;50669;50.982;11.022;2024-03-02T04:38:35;18.10;71.50
28837;DHT22;50669;50.982;11.022;2024-03-02T04:41:00;18.10;71.50
28837;DHT22;50669;50.982;11.022;2024-03-02T04:43:28;18.10;71.50
28837;DHT22;50669;50.982;11.022;2024-03-02T04:45:57;18.00;71.50
28837;DHT22;50669;50.982;11.022;2024-03-02T04:48:23;18.00;71.50
28837;DHT22;50669;50.982;11.022;2024-03-02T04:50:48;18.10;71.60
28837;DHT22;50669;50.982;11.022;2024-03-02T04:53:14;18.00;71.50
28837;DHT22;50669;50.982;11.022;2024-03-02T04:55:40;18.10;71.50
28837;DHT22;50669;50.982;11.022;2024-03-02T04:58:05;18.10;71.60
28837;DHT22;50669;50.982;11.022;2024-03-02T05:00:32;18.10;71.50
28837;DHT22;50669;50.982;11.022;2024-03-02T05:03:02;18.10;71.50
28837;DHT22;50669;50.982;11.022;2024-03-02T05:05:28;18.00;71.40
28837;DHT22;50669;50.982;11.022;2024-03-02T05:07:56;18.00;71.40
28837;DHT22;50669;50.982;11.022;2024-03-02T05:10:24;18.00;71.50
28837;DHT22;50669;50.982;11.022;2024-03-02T05:12:50;18.10;71.50
28837;DHT22;50669;50.982;11.022;2024-03-02T05:15:27;18.00;71.50
28837;DHT22;50669;50.982;11.022;2024-03-02T05:17:53;18.00;71.40
28837;DHT22;50669;50.982;11.022;2024-03-02T05:20:19;18.00;71.40
28837;DHT22;50669;50.982;11.022;2024-03-02T05:22:47;18.00;71.40
28837;DHT22;50669;50.982;11.022;2024-03-02T05:25:13;18.00;71.30
28837;DHT22;50669;50.982;11.022;2024-03-02T05:27:39;18.00;71.40
28837;DHT22;50669;50.982;11.022;2024-03-02T05:30:05;18.00;71.50
28837;DHT22;50669;50.982;11.022;2024-03-02T05:32:34;18.00;71.40
28837;DHT22;50669;50.982;11.022;2024-03-02T05:35:08;18.00;71.40
28837;DHT22;50669;50.982;11.022;2024-03-02T05:37:36;18.00;71.40
28837;DHT22;50669;50.982;11.022;2024-03-02T05:40:04;18.00;71.40
28837;DHT22;50669;50.982;11.022;2024-03-02T05:42:31;18.00;71.40
28837;DHT22;50669;50.982;11.022;2024-03-02T05:44:59;18.00;71.40
28837;DHT22;50669;50.982;11.022;2024-03-02T05:47:24;18.00;72.10
28837;DHT22;50669;50.982;11.022;2024-03-02T05:49:50;18.00;71.30
28837;DHT22;50669;50.982;11.022;2024-03-02T05:52:16;18.00;71.40
28837;DHT22;50669;50.982;11.022;2024-03-02T05:54:41;18.00;71.40
28837;DHT22;50669;50.982;11.022;2024-03-02T05:57:07;18.00;71.40
28837;DHT22;50669;50.982;11.022;2024-03-02T06:00:04;18.00;71.40
28837;DHT22;50669;50.982;11.022;2024-03-02T06:02:33;18.00;71.40
28837;DHT22;50669;50.982;11.022;2024-03-02T06:05:00;18.00;71.40
28837;DHT22;50669;50.982;11.022;2024-03-02T06:07:29;18.00;71.40
28837;DHT22;50669;50.982;11.022;2024-03-02T06:09:55;18.00;71.40
28837;DHT22;50669;50.982;11.022;2024-03-02T06:12:20;18.00;71.40
28837;DHT22;50669;50.982;11.022;2024-03-02T06:14:46;18.00;71.40
28837;DHT22;50669;50.982;11.022;2024-03-02T06:17:12;18.00;71.40
28837;DHT22;50669;50.982;11.022;2024-03-02T06:19:37;18.00;71.40
28837;DHT22;50669;50.982;11.022;2024-03-02T06:22:03;18.00;71.40
28837;DHT22;50669;50.982;11.022;2024-03-02T06:24:31;17.90;71.30
28837;DHT22;50669;50.982;11.022;2024-03-02T06:26:59;18.00;71.40
28837;DHT22;50669;50.982;11.022;2024-03-02T06:29:27;18.00;71.40
28837;DHT22;50669;50.982;11.022;2024-03-02T06:31:53;17.90;71.30
28837;DHT22;50669;50.982;11.022;2024-03-02T06:34:18;17.90;71.30
28837;DHT22;50669;50.982;11.022;2024-03-02T06:36:46;18.00;71.40
28837;DHT22;50669;50.982;11.022;2024-03-02T06:39:13;18.00;71.40
28837;DHT22;50669;50.982;11.022;2024-03-02T06:41:43;18.00;71.40
28837;DHT22;50669;50.982;11.022;2024-03-02T06:44:12;17.90;71.30
28837;DHT22;50669;50.982;11.022;2024-03-02T06:46:38;17.90;71.30
28837;DHT22;50669;50.982;11.022;2024-03-02T06:49:04;17.90;71.20
28837;DHT22;50669;50.982;11.022;2024-03-02T06:51:34;17.90;71.30
28837;DHT22;50669;50.982;11.022;2024-03-02T06:53:59;18.00;71.40
28837;DHT22;50669;50.982;11.022;2024-03-02T06:56:30;17.90;71.30
28837;DHT22;50669;50.982;11.022;2024-03-02T06:58:58;18.00;71.40
28837;DHT22;50669;50.982;11.022;2024-03-02T07:01:24;17.90;71.30
28837;DHT22;50669;50.982;11.022;2024-03-02T07:03:51;17.90;71.20
28837;DHT22;50669;50.982;11.022;2024-03-02T07:06:17;17.90;71.20
28837;DHT22;50669;50.982;11.022;2024-03-02T07:08:43;17.90;71.30
28837;DHT22;50669;50.982;11.022;2024-03-02T07:11:08;17.90;71.20
28837;DHT22;50669;50.982;11.022;2024-03-02T07:13:35;18.00;71.30
28837;DHT22;50669;50.982;11.022;2024-03-02T07:16:01;17.90;71.30
28837;DHT22;50669;50.982;11.022;2024-03-02T07:18:30;17.90;71.30
28837;DHT22;50669;50.982;11.022;2024-03-02T07:20:59;18.00;71.30
28837;DHT22;50669;50.982;11.022;2024-03-02T07:23:30;17.90;71.20
28837;DHT22;50669;50.982;11.022;2024-03-02T07:25:57;17.90;71.20
28837;DHT22;50669;50.982;11.022;2024-03-02T07:28:27;17.90;71.20
28837;DHT22;50669;50.982;11.022;2024-03-02T07:31:02;18.00;71.30
28837;DHT22;50669;50.982;11.022;2024-03-02T07:33:28;17.90;71.20
28837;DHT22;50669;50.982;11.022;2024-03-02T07:35:54;17.90;71.20
28837;DHT22;50669;50.982;11.022;2024-03-02T07:38:21;17.90;71.20
28837;DHT22;50669;50.982;11.022;2024-03-02T07:40:48;18.00;71.30
28837;DHT22;50669;50.982;11.022;2024-03-02T07:43:16;17.90;71.20
28837;DHT22;50669;50.982;11.022;2024-03-02T07:45:42;17.90;71.20
28837;DHT22;50669;50.982;11.022;2024-03-02T07:48:08;17.90;71.10
28837;DHT22;50669;50.982;11.022;2024-03-02T07:50:34;18.00;71.20
28837;DHT22;50669;50.982;11.022;2024-03-02T07:53:01;17.90;71.10
28837;DHT22;50669;50.982;11.022;2024-03-02T07:55:26;17.90;71.10
28837;DHT22;50669;50.982;11.022;2024-03-02T07:57:52;17.90;71.10
28837;DHT22;50669;50.982;11.022;2024-03-02T08:00:23;17.90;71.10
28837;DHT22;50669;50.982;11.022;2024-03-02T08:02:53;17.90;71.10
28837;DHT22;50669;50.982;11.022;2024-03-02T08:05:22;17.90;71.10
28837;DHT22;50669;50.982;11.022;2024-03-02T08:07:50;17.90;71.10
28837;DHT22;50669;50.982;11.022;2024-03-02T08:10:19;17.90;71.00
28837;DHT22;50669;50.982;11.022;2024-03-02T08:12:45;17.90;71.00
28837;DHT22;50669;50.982;11.022;2024-03-02T08:15:13;17.90;71.00
28837;DHT22;50669;50.982;11.022;2024-03-02T08:17:41;17.90;71.00
28837;DHT22;50669;50.982;11.022;2024-03-02T08:20:14;18.00;71.10
28837;DHT22;50669;50.982;11.022;2024-03-02T08:22:40;17.90;71.00
28837;DHT22;50669;50.982;11.022;2024-03-02T08:25:08;17.90;71.00
28837;DHT22;50669;50.982;11.022;2024-03-02T08:27:38;18.00;71.10
28837;DHT22;50669;50.982;11.022;2024-03-02T08:30:04;18.00;71.00
28837;DHT22;50669;50.982;11.022;2024-03-02T08:32:32;18.00;71.00
28837;DHT22;50669;50.982;11.022;2024-03-02T08:34:59;18.00;71.00
28837;DHT22;50669;50.982;11.022;2024-03-02T08:37:25;18.00;71.00
28837;DHT22;50669;50.982;11.022;2024-03-02T08:39:50;18.00;71.00
28837;DHT22;50669;50.982;11.022;2024-03-02T08:42:19;18.00;70.90
28837;DHT22;50669;50.982;11.022;2024-03-02T08:44:47;18.00;70.90
28837;DHT22;50669;50.982;11.022;2024-03-02T08:47:13;18.00;70.90
28837;DHT22;50669;50.982;11.022;2024-03-02T08:49:39;18.00;70.90
28837;DHT22;50669;50.982;11.022;2024-03-02T08:52:05;18.00;70.80
28837;DHT22;50669;50.982;11.022;2024-03-02T08:54:35;18.00;70.90
28837;DHT22;50669;50.982;11.022;2024-03-02T08:57:01;18.00;70.90
28837;DHT22;50669;50.982;11.022;2024-03-02T08:59:26;18.00;70.80
28837;DHT22;50669;50.982;11.022;2024-03-02T09:01:53;18.00;70.80
28837;DHT22;50669;50.982;11.022;2024-03-02T09:04:18;18.00;70.70
28837;DHT22;50669;50.982;11.022;2024-03-02T09:06:44;18.00;70.80
28837;DHT22;50669;50.982;11.022;2024-03-02T09:09:14;18.00;70.70
28837;DHT22;50669;50.982;11.022;2024-03-02T09:11:40;18.00;70.80
28837;DHT22;50669;50.982;11.022;2024-03-02T09:14:06;18.10;70.80
28837;DHT22;50669;50.982;11.022;2024-03-02T09:16:36;18.10;70.80
28837;DHT22;50669;50.982;11.022;2024-03-02T09:19:02;18.10;70.70
28837;DHT22;50669;50.982;11.022;2024-03-02T09:21:27;18.10;70.80
28837;DHT22;50669;50.982;11.022;2024-03-02T09:23:55;18.10;70.80
28837;DHT22;50669;50.982;11.022;2024-03-02T09:26:21;18.10;70.80
28837;DHT22;50669;50.982;11.022;2024-03-02T09:28:46;18.10;70.70
28837;DHT22;50669;50.982;11.022;2024-03-02T09:31:17;18.10;70.70
28837;DHT22;50669;50.982;11.022;2024-03-02T09:33:42;18.10;70.70
28837;DHT22;50669;50.982;11.022;2024-03-02T09:36:21;18.10;70.70
28837;DHT22;50669;50.982;11.022;2024-03-02T09:38:50;18.10;70.70
28837;DHT22;50669;50.982;11.022;2024-03-02T09:41:15;18.10;70.60
28837;DHT22;50669;50.982;11.022;2024-03-02T09:43:43;18.10;70.60
28837;DHT22;50669;50.982;11.022;2024-03-02T09:46:10;18.10;70.60
28837;DHT22;50669;50.982;11.022;2024-03-02T09:48:36;18.10;70.70
28837;DHT22;50669;50.982;11.022;2024-03-02T09:51:02;18.10;70.60
28837;DHT22;50669;50.982;11.022;2024-03-02T09:53:32;18.10;70.60
28837;DHT22;50669;50.982;11.022;2024-03-02T09:56:05;18.10;70.60
28837;DHT22;50669;50.982;11.022;2024-03-02T09:58:31;18.10;70.60
28837;DHT22;50669;50.982;11.022;2024-03-02T10:00:57;18.10;70.60
28837;DHT22;50669;50.982;11.022;2024-03-02T10:03:23;18.10;70.60
28837;DHT22;50669;50.982;11.022;2024-03-02T10:05:52;18.10;70.50
28837;DHT22;50669;50.982;11.022;2024-03-02T10:08:18;18.10;70.40
28837;DHT22;50669;50.982;11.022;2024-03-02T10:10:44;18.10;70.50
28837;DHT22;50669;50.982;11.022;2024-03-02T10:13:13;18.10;70.50
28837;DHT22;50669;50.982;11.022;2024-03-02T10:15:41;18.20;70.50
28837;DHT22;50669;50.982;11.022;2024-03-02T10:18:11;18.20;70.50
28837;DHT22;50669;50.982;11.022;2024-03-02T10:20:41;18.20;70.50
28837;DHT22;50669;50.982;11.022;2024-03-02T10:23:14;18.20;70.50
28837;DHT22;50669;50.982;11.022;2024-03-02T10:25:42;18.20;70.40
28837;DHT22;50669;50.982;11.022;2024-03-02T10:28:08;18.20;70.40
28837;DHT22;50669;50.982;11.022;2024-03-02T10:30:35;18.20;70.30
28837;DHT22;50669;50.982;11.022;2024-03-02T10:33:02;18.20;70.40
28837;DHT22;50669;50.982;11.022;2024-03-02T10:35:28;18.20;70.30
28837;DHT22;50669;50.982;11.022;2024-03-02T10:37:54;18.20;70.30
28837;DHT22;50669;50.982;11.022;2024-03-02T10:40:22;18.20;70.20
28837;DHT22;50669;50.982;11.022;2024-03-02T10:42:51;18.20;70.20
28837;DHT22;50669;50.982;11.022;2024-03-02T10:45:21;18.30;70.30
28837;DHT22;50669;50.982;11.022;2024-03-02T10:47:49;18.20;70.20
28837;DHT22;50669;50.982;11.022;2024-03-02T10:50:15;18.30;70.20
28837;DHT22;50669;50.982;11.022;2024-03-02T10:52:41;18.30;70.20
28837;DHT22;50669;50.982;11.022;2024-03-02T10:55:10;18.30;70.30
28837;DHT22;50669;50.982;11.022;2024-03-02T10:57:54;18.30;70.20
28837;DHT22;50669;50.982;11.022;2024-03-02T11:00:24;18.30;70.20
28837;DHT22;50669;50.982;11.022;2024-03-02T11:03:05;18.30;70.20
28837;DHT22;50669;50.982;11.022;2024-03-02T11:05:44;18.30;70.20
28837;DHT22;50669;50.982;11.022;2024-03-02T11:08:18;18.30;70.20
28837;DHT22;50669;50.982;11.022;2024-03-02T11:10:58;18.30;70.20
28837;DHT22;50669;50.982;11.022;2024-03-02T11:13:34;18.30;70.20
28837;DHT22;50669;50.982;11.022;2024-03-02T11:16:03;18.30;70.10
28837;DHT22;50669;50.982;11.022;2024-03-02T11:18:29;18.30;70.10
28837;DHT22;50669;50.982;11.022;2024-03-02T11:20:59;18.30;70.10
28837;DHT22;50669;50.982;11.022;2024-03-02T11:23:35;18.30;70.10
28837;DHT22;50669;50.982;11.022;2024-03-02T11:28:47;18.30;70.00
28837;DHT22;50669;50.982;11.022;2024-03-02T11:31:12;18.30;70.00
28837;DHT22;50669;50.982;11.022;2024-03-02T11:33:38;18.30;70.00
28837;DHT22;50669;50.982;11.022;2024-03-02T11:36:06;18.30;69.90
28837;DHT22;50669;50.982;11.022;2024-03-02T11:38:34;18.30;69.90
28837;DHT22;50669;50.982;11.022;2024-03-02T11:41:06;18.30;70.00
28837;DHT22;50669;50.982;11.022;2024-03-02T11:43:38;18.40;70.00
28837;DHT22;50669;50.982;11.022;2024-03-02T11:46:07;18.40;70.00
28837;DHT22;50669;50.982;11.022;2024-03-02T11:48:36;18.40;70.00
28837;DHT22;50669;50.982;11.022;2024-03-02T11:51:05;18.40;70.00
28837;DHT22;50669;50.982;11.022;2024-03-02T11:53:33;18.40;70.00
28837;DHT22;50669;50.982;11.022;2024-03-02T11:56:01;18.40;70.00
28837;DHT22;50669;50.982;11.022;2024-03-02T11:58:36;18.40;69.90
28837;DHT22;50669;50.982;11.022;2024-03-02T12:01:03;18.40;69.90
28837;DHT22;50669;50.982;11.022;2024-03-02T12:03:28;18.40;69.80
28837;DHT22;50669;50.982;11.022;2024-03-02T12:05:55;18.50;69.90
28837;DHT22;50669;50.982;11.022;2024-03-02T12:08:21;18.50;69.90
28837;DHT22;50669;50.982;11.022;2024-03-02T12:11:00;18.40;69.80
28837;DHT22;50669;50.982;11.022;2024-03-02T12:13:29;18.50;69.70
28837;DHT22;50669;50.982;11.022;2024-03-02T12:15:55;18.50;69.70
28837;DHT22;50669;50.982;11.022;2024-03-02T12:18:24;18.50;69.70
28837;DHT22;50669;50.982;11.022;2024-03-02T12:20:51;18.50;69.70
28837;DHT22;50669;50.982;11.022;2024-03-02T12:23:23;18.60;69.60
28837;DHT22;50669;50.982;11.022;2024-03-02T12:25:50;18.60;69.50
28837;DHT22;50669;50.982;11.022;2024-03-02T12:28:18;18.60;69.40
28837;DHT22;50669;50.982;11.022;2024-03-02T12:30:47;18.70;69.20
28837;DHT22;50669;50.982;11.022;2024-03-02T12:33:16;18.70;69.20
28837;DHT22;50669;50.982;11.022;2024-03-02T12:35:42;18.80;69.10
28837;DHT22;50669;50.982;11.022;2024-03-02T12:38:10;18.80;68.90
28837;DHT22;50669;50.982;11.022;2024-03-02T12:40:36;18.90;68.80
28837;DHT22;50669;50.982;11.022;2024-03-02T12:43:02;18.90;68.60
28837;DHT22;50669;50.982;11.022;2024-03-02T12:45:30;19.00;68.70
28837;DHT22;50669;50.982;11.022;2024-03-02T12:47:56;19.00;68.70
28837;DHT22;50669;50.982;11.022;2024-03-02T12:50:22;19.00;68.50
28837;DHT22;50669;50.982;11.022;2024-03-02T12:52:55;18.90;68.60
28837;DHT22;50669;50.982;11.022;2024-03-02T12:55:24;18.90;68.70
28837;DHT22;50669;50.982;11.022;2024-03-02T12:57:53;18.90;68.80
28837;DHT22;50669;50.982;11.022;2024-03-02T13:00:20;18.80;68.80
28837;DHT22;50669;50.982;11.022;2024-03-02T13:02:51;18.80;69.00
28837;DHT22;50669;50.982;11.022;2024-03-02T13:05:17;18.80;69.00
28837;DHT22;50669;50.982;11.022;2024-03-02T13:07:43;18.70;69.00
28837;DHT22;50669;50.982;11.022;2024-03-02T13:10:13;18.70;69.10
28837;DHT22;50669;50.982;11.022;2024-03-02T13:12:39;18.70;69.10
28837;DHT22;50669;50.982;11.022;2024-03-02T13:15:08;18.70;69.20
28837;DHT22;50669;50.982;11.022;2024-03-02T13:17:38;18.70;69.20
28837;DHT22;50669;50.982;11.022;2024-03-02T13:20:08;18.70;69.20
28837;DHT22;50669;50.982;11.022;2024-03-02T13:22:35;18.70;69.20
28837;DHT22;50669;50.982;11.022;2024-03-02T13:25:01;18.70;69.30
28837;DHT22;50669;50.982;11.022;2024-03-02T13:27:30;18.70;69.30
28837;DHT22;50669;50.982;11.022;2024-03-02T13:29:57;18.70;69.30
28837;DHT22;50669;50.982;11.022;2024-03-02T13:32:22;18.70;69.30
28837;DHT22;50669;50.982;11.022;2024-03-02T13:34:51;18.70;69.30
28837;DHT22;50669;50.982;11.022;2024-03-02T13:37:17;18.70;69.30
28837;DHT22;50669;50.982;11.022;2024-03-02T13:39:45;18.70;69.30
28837;DHT22;50669;50.982;11.022;2024-03-02T13:42:11;18.70;69.30
28837;DHT22;50669;50.982;11.022;2024-03-02T13:44:43;18.70;69.30
28837;DHT22;50669;50.982;11.022;2024-03-02T13:47:13;18.70;69.30
28837;DHT22;50669;50.982;11.022;2024-03-02T13:49:39;18.70;69.30
28837;DHT22;50669;50.982;11.022;2024-03-02T13:52:10;18.70;69.20
28837;DHT22;50669;50.982;11.022;2024-03-02T13:54:44;18.70;69.20
28837;DHT22;50669;50.982;11.022;2024-03-02T13:57:11;18.70;69.20
28837;DHT22;50669;50.982;11.022;2024-03-02T13:59:42;18.70;69.10
28837;DHT22;50669;50.982;11.022;2024-03-02T14:02:08;18.70;69.20
28837;DHT22;50669;50.982;11.022;2024-03-02T14:04:37;18.70;69.20
28837;DHT22;50669;50.982;11.022;2024-03-02T14:07:03;18.70;69.10
28837;DHT22;50669;50.982;11.022;2024-03-02T14:09:29;18.80;69.10
28837;DHT22;50669;50.982;11.022;2024-03-02T14:11:56;18.80;69.10
28837;DHT22;50669;50.982;11.022;2024-03-02T14:14:21;18.80;69.10
28837;DHT22;50669;50.982;11.022;2024-03-02T14:16:50;18.80;69.00
28837;DHT22;50669;50.982;11.022;2024-03-02T14:19:16;18.80;69.00
28837;DHT22;50669;50.982;11.022;2024-03-02T14:21:42;18.90;68.90
28837;DHT22;50669;50.982;11.022;2024-03-02T14:24:10;18.90;68.90
28837;DHT22;50669;50.982;11.022;2024-03-02T14:26:38;18.80;68.90
28837;DHT22;50669;50.982;11.022;2024-03-02T14:29:04;18.90;68.90
28837;DHT22;50669;50.982;11.022;2024-03-02T14:31:30;18.90;69.00
28837;DHT22;50669;50.982;11.022;2024-03-02T14:33:59;18.80;68.90
28837;DHT22;50669;50.982;11.022;2024-03-02T14:36:26;18.80;68.90
28837;DHT22;50669;50.982;11.022;2024-03-02T14:38:53;18.80;69.00
28837;DHT22;50669;50.982;11.022;2024-03-02T14:41:21;18.80;69.00
28837;DHT22;50669;50.982;11.022;2024-03-02T14:43:49;18.80;69.00
28837;DHT22;50669;50.982;11.022;2024-03-02T14:46:15;18.80;69.00
28837;DHT22;50669;50.982;11.022;2024-03-02T14:48:43;18.80;69.00
28837;DHT22;50669;50.982;11.022;2024-03-02T14:51:09;18.80;69.00
28837;DHT22;50669;50.982;11.022;2024-03-02T14:53:36;18.80;69.00
28837;DHT22;50669;50.982;11.022;2024-03-02T14:56:05;18.80;69.00
28837;DHT22;50669;50.982;11.022;2024-03-02T14:58:34;18.80;69.10
28837;DHT22;50669;50.982;11.022;2024-03-02T15:01:01;18.80;69.10
28837;DHT22;50669;50.982;11.022;2024-03-02T15:03:26;18.80;69.10
28837;DHT22;50669;50.982;11.022;2024-03-02T15:05:55;18.80;69.10
28837;DHT22;50669;50.982;11.022;2024-03-02T15:08:21;18.80;69.10
28837;DHT22;50669;50.982;11.022;2024-03-02T15:10:46;18.80;69.10
28837;DHT22;50669;50.982;11.022;2024-03-02T15:13:12;18.80;69.00
28837;DHT22;50669;50.982;11.022;2024-03-02T15:15:38;18.80;69.10
28837;DHT22;50669;50.982;11.022;2024-03-02T15:18:08;18.80;69.10
28837;DHT22;50669;50.982;11.022;2024-03-02T15:20:34;18.80;69.10
28837;DHT22;50669;50.982;11.022;2024-03-02T15:23:02;18.80;69.10
28837;DHT22;50669;50.982;11.022;2024-03-02T15:25:28;18.80;69.10